CheckWX is a tool to help pilots better visualize weather data.  It is not intended as a substitute for an official pre-flight weather briefing.

15:46:23 UTC

KASD TAF
Slidell Airport
Slidell, Louisiana, USA
KASD 291125Z 2912/3012 VRB03KT P6SM SCT010 OVC030 FM291500 01006KT P6SM SCT020 BKN040 FM300000 VRB03KT P6SM BKN040

Mar-29@
12:00 UTC

Mar-29 @ 12:00 UTC

Mar-29@
15:00 UTC

Mar-29 @ 15:00 UTC

TAF KASD 291125Z 2912/3012 VRB03KT P6SM SCT010 OVC030

Expired

Wind
  • Variable at 3 KTS
Cloud Levels
  • Scattered at 1,000' AGL
  • Overcast at 3,000' AGL

Mar-29@
15:00 UTC

Mar-29 @ 15:00 UTC

Mar-30@
00:00 UTC

Mar-30 @ 00:00 UTC

FM291500 01006KT P6SM SCT020 BKN040

From

From Standard forecast or significant change

Wind
  • 010° at 6 KTS
Cloud Levels
  • Scattered at 2,000' AGL
  • Broken at 4,000' AGL

Mar-30@
00:00 UTC

Mar-30 @ 00:00 UTC

Mar-30@
12:00 UTC

Mar-30 @ 12:00 UTC

FM300000 VRB03KT P6SM BKN040

From

From Standard forecast or significant change

Wind
  • Variable at 3 KTS
Cloud Levels
  • Broken at 4,000' AGL